SVVG/VIG METAR and TAF weather

Enter ICAO airport designator
Station Type Date Time Source
SVVG METAR 2019/05/31 20:00 UTC NOAA

SVVG 312000Z 34003KT 9999 -DZ BKN017 32/27 Q1008


Station Type Date Time Source
SVVG Decoded METAR 2019/05/31 20:00 UTC NOAA

El Vigia / Perez Alph, Venezuela (SVVG) 08-38N 071-40W
May 31, 2019 - 04:00 PM EDT / 2019.05.31 2000 UTC
Wind: from the NNW (340 degrees) at 3 MPH (3 KT):0
Visibility: greater than 7 mile(s):0
Sky conditions: mostly cloudy
Weather: light drizzle
Temperature: 89 F (32 C)
Heat index: 105.6 F (40.9 C):1
Dew Point: 80 F (27 C)
Relative Humidity: 74%
Pressure (altimeter): 29.77 in. Hg (1008 hPa)
ob: SVVG 312000Z 34003KT 9999 -DZ BKN017 32/27 Q1008
cycle: 20

Station Type Date Time Source
SVVG TAF UTC NOAA

Error!

Example: see airport list